Terminal Aerodrome Forecast
Issued by NWS

Home | Current Version | Previous Version | Text Only | Print | Product List | Glossary Off
Versions: 1 2 3 4 5 6 7 8 9 10 11 12 13 14 15 16 17 18

989
FTUS43 KBIS 240533
TAFMOT
TAF
KMOT 240533Z 2406/2506 33008KT P6SM -SHRA SCT015 OVC025
     FM240800 36007KT 6SM -SHRA BR SCT010 OVC015
     FM241200 35010KT 5SM -SHRA BR OVC003
     FM241700 35013KT P6SM VCSH OVC010
     FM242100 35010KT P6SM -SHRA OVC020
     FM250000 35008KT P6SM OVC025=

USA.gov is the U.S. government's official web portal to all federal, state and local government web resources and services.